Time;durP1;ratioP1;P1;durP2;ratioP2;P2;SDS_P1;SDS_P2;PMS_P1;PMS_P2;Temp;Humidity;BMP_temperature;BMP_pressure;BME280_temperature;BME280_humidity;BME280_pressure;Samples;Min_cycle;Max_cycle;Signal;HPM_P1;HPM_P2
2021/01/28 00:01:08;;;;;;;1.33;1.33;;;2.40;99.90;;;;;;5035749;28;20056;-80
2021/01/28 00:03:36;;;;;;;1.40;1.30;;;2.50;99.90;;;;;;5036291;28;20132;-80
2021/01/28 00:06:03;;;;;;;1.40;1.30;;;2.40;99.90;;;;;;5037008;28;20055;-81
2021/01/28 00:08:30;;;;;;;1.25;1.25;;;2.50;99.90;;;;;;5038027;28;20057;-80
2021/01/28 00:10:57;;;;;;;1.20;1.20;;;2.50;99.90;;;;;;5036461;28;20045;-80
2021/01/28 00:13:23;;;;;;;1.10;1.10;;;2.40;99.90;;;;;;5036952;28;20045;-80
2021/01/28 00:15:50;;;;;;;1.23;1.23;;;2.40;99.90;;;;;;5037062;28;20469;-80
2021/01/28 00:18:17;;;;;;;1.52;1.42;;;2.50;99.90;;;;;;5037412;28;20052;-80
2021/01/28 00:20:47;;;;;;;1.50;1.40;;;2.50;99.90;;;;;;5037192;28;20075;-80
2021/01/28 00:23:15;;;;;;;1.50;1.40;;;2.40;99.90;;;;;;5036459;28;20474;-80
2021/01/28 00:25:42;;;;;;;1.60;1.60;;;2.40;99.90;;;;;;5035503;28;20052;-81
2021/01/28 00:28:10;;;;;;;1.20;1.20;;;2.40;99.90;;;;;;5036570;28;20099;-81
2021/01/28 00:30:39;;;;;;;1.50;1.40;;;2.40;99.90;;;;;;5034622;28;20049;-80
2021/01/28 00:33:07;;;;;;;1.30;1.25;;;2.40;99.90;;;;;;5035595;28;20091;-80
2021/01/28 00:35:43;;;;;;;1.27;1.27;;;2.50;99.90;;;;;;5035750;28;20045;-80
2021/01/28 00:38:24;;;;;;;1.33;1.33;;;2.50;99.90;;;;;;5035070;28;20480;-80
2021/01/28 00:40:50;;;;;;;1.27;1.27;;;2.40;99.90;;;;;;5033612;28;20066;-80
2021/01/28 00:43:17;;;;;;;1.85;1.75;;;2.50;99.90;;;;;;5035464;28;20144;-80
2021/01/28 00:45:44;;;;;;;1.30;1.30;;;2.50;99.90;;;;;;5034443;28;20046;-80
2021/01/28 00:48:11;;;;;;;1.45;1.40;;;2.50;99.90;;;;;;5036934;28;20477;-81
2021/01/28 00:50:39;;;;;;;1.20;1.20;;;2.50;99.90;;;;;;5043584;28;20056;-82
2021/01/28 00:53:06;;;;;;;1.45;1.45;;;2.50;99.90;;;;;;5043311;28;20045;-81
2021/01/28 00:55:34;;;;;;;1.50;1.50;;;2.50;99.90;;;;;;5039466;28;20053;-81
2021/01/28 00:58:00;;;;;;;1.67;1.67;;;2.50;99.90;;;;;;5038674;28;20049;-81
2021/01/28 01:00:38;;;;;;;1.50;1.40;;;2.50;99.90;;;;;;5040751;28;20487;-81
2021/01/28 01:03:05;;;;;;;1.70;1.67;;;2.50;99.90;;;;;;5041823;28;20080;-80
2021/01/28 01:05:33;;;;;;;1.45;1.45;;;2.50;99.90;;;;;;5038566;28;20050;-80
2021/01/28 01:08:11;;;;;;;1.88;1.85;;;2.50;99.90;;;;;;5037735;28;20057;-80
2021/01/28 01:10:45;;;;;;;1.67;1.58;;;2.50;99.90;;;;;;5039534;28;20049;-81
2021/01/28 01:13:18;;;;;;;1.65;1.55;;;2.50;99.90;;;;;;5037433;28;20128;-81
2021/01/28 01:15:44;;;;;;;1.60;1.60;;;2.50;99.90;;;;;;5039332;28;20049;-81
2021/01/28 01:18:13;;;;;;;1.60;1.60;;;2.50;99.90;;;;;;5038714;28;20046;-81
2021/01/28 01:20:40;;;;;;;1.55;1.50;;;2.50;99.90;;;;;;5039276;28;20501;-81
2021/01/28 01:23:07;;;;;;;1.50;1.50;;;2.50;99.90;;;;;;5038125;28;20054;-80
2021/01/28 01:25:33;;;;;;;1.73;1.63;;;2.50;99.90;;;;;;5036186;28;20486;-80
2021/01/28 01:28:00;;;;;;;1.20;1.20;;;2.50;99.90;;;;;;5035482;28;20054;-81
2021/01/28 01:30:27;;;;;;;1.85;1.70;;;2.50;99.90;;;;;;5036432;28;20071;-81
2021/01/28 01:32:53;;;;;;;1.30;1.30;;;2.60;99.90;;;;;;5037678;28;20042;-81
2021/01/28 01:35:22;;;;;;;1.42;1.42;;;2.60;99.90;;;;;;5037629;28;20050;-80
2021/01/28 01:37:54;;;;;;;1.30;1.30;;;2.60;99.90;;;;;;5036126;28;20041;-80
2021/01/28 01:40:45;;;;;;;1.70;1.60;;;2.60;99.90;;;;;;5036738;28;20052;-81
2021/01/28 01:43:13;;;;;;;1.42;1.33;;;2.60;99.90;;;;;;5036720;28;20049;-80
2021/01/28 01:45:46;;;;;;;1.33;1.33;;;2.60;99.90;;;;;;5035320;28;20049;-80
2021/01/28 01:48:22;;;;;;;1.70;1.60;;;2.60;99.90;;;;;;5036132;28;20133;-80
2021/01/28 01:51:16;;;;;;;1.17;1.17;;;2.50;99.90;;;;;;5038073;28;20296;-80
2021/01/28 01:53:58;;;;;;;1.27;1.27;;;2.60;99.90;;;;;;5035669;28;20049;-80
2021/01/28 01:56:29;;;;;;;1.38;1.38;;;2.60;99.90;;;;;;5040430;28;20045;-80
2021/01/28 01:59:11;;;;;;;1.35;1.35;;;2.60;99.90;;;;;;5035329;28;20053;-80
2021/01/28 02:01:42;;;;;;;1.40;1.40;;;2.50;99.90;;;;;;5036334;28;20045;-80
2021/01/28 02:04:11;;;;;;;0.93;0.93;;;2.60;99.90;;;;;;5036874;28;20049;-80
2021/01/28 02:06:39;;;;;;;1.13;1.13;;;2.60;99.90;;;;;;5036216;28;20080;-80
2021/01/28 02:09:08;;;;;;;1.20;1.20;;;2.50;99.90;;;;;;5035485;28;20506;-80
2021/01/28 02:11:36;;;;;;;1.38;1.38;;;2.50;99.90;;;;;;5035313;28;20046;-80
2021/01/28 02:14:06;;;;;;;1.27;1.27;;;2.50;99.90;;;;;;5036229;28;20494;-80
2021/01/28 02:16:37;;;;;;;1.15;1.15;;;2.50;99.90;;;;;;5038104;28;20460;-80
2021/01/28 02:19:27;;;;;;;1.38;1.38;;;2.60;99.90;;;;;;5039408;28;20071;-80
2021/01/28 02:21:54;;;;;;;1.02;1.02;;;2.60;99.90;;;;;;5038270;28;20159;-80
2021/01/28 02:24:35;;;;;;;1.00;1.00;;;2.70;99.90;;;;;;5037473;28;20137;-80
2021/01/28 02:27:06;;;;;;;1.00;0.90;;;2.70;99.90;;;;;;5037434;28;20049;-80
2021/01/28 02:29:33;;;;;;;0.90;0.90;;;2.70;99.90;;;;;;5036923;28;20482;-81
2021/01/28 02:31:59;;;;;;;0.75;0.75;;;2.80;99.90;;;;;;5038113;28;20077;-80
2021/01/28 02:34:26;;;;;;;0.88;0.88;;;2.80;99.90;;;;;;5041306;28;20084;-81
2021/01/28 02:36:54;;;;;;;0.90;0.90;;;2.80;99.90;;;;;;5046956;28;20502;-81
2021/01/28 02:39:25;;;;;;;1.00;1.00;;;2.80;99.90;;;;;;5045076;28;20077;-81
2021/01/28 02:42:10;;;;;;;0.98;0.98;;;2.80;99.90;;;;;;5044451;28;20053;-81
2021/01/28 02:44:36;;;;;;;0.98;0.98;;;2.90;99.90;;;;;;5044044;28;20073;-80
2021/01/28 02:47:02;;;;;;;0.73;0.73;;;2.90;99.90;;;;;;5041235;28;20072;-81
2021/01/28 02:49:29;;;;;;;0.70;0.70;;;2.90;99.90;;;;;;5043544;28;20057;-81
2021/01/28 02:51:55;;;;;;;0.80;0.80;;;3.00;99.90;;;;;;5041949;28;20041;-81
2021/01/28 02:54:21;;;;;;;0.93;0.93;;;3.00;99.90;;;;;;5040185;28;20133;-81
2021/01/28 02:56:47;;;;;;;0.98;0.98;;;3.00;99.90;;;;;;5041510;28;20087;-81
2021/01/28 02:59:14;;;;;;;0.73;0.73;;;3.00;99.90;;;;;;5039765;28;20046;-80
2021/01/28 03:01:41;;;;;;;1.00;1.00;;;3.00;99.90;;;;;;5040254;28;20046;-80
2021/01/28 03:04:09;;;;;;;0.70;0.70;;;3.00;99.90;;;;;;5040598;28;20049;-81
2021/01/28 03:06:36;;;;;;;1.20;1.20;;;3.00;99.90;;;;;;5040477;28;20077;-80
2021/01/28 03:09:05;;;;;;;0.85;0.85;;;3.00;99.90;;;;;;5040023;28;20072;-80
2021/01/28 03:11:33;;;;;;;0.90;0.90;;;2.90;99.90;;;;;;5039879;28;20045;-80
2021/01/28 03:13:59;;;;;;;1.00;1.00;;;2.90;99.90;;;;;;5040064;28;20482;-80
2021/01/28 03:16:26;;;;;;;1.50;1.40;;;2.90;99.90;;;;;;5039614;28;20053;-80
2021/01/28 03:18:53;;;;;;;1.25;1.25;;;2.90;99.90;;;;;;5039517;28;20471;-80
2021/01/28 03:21:19;;;;;;;1.60;1.50;;;2.80;99.90;;;;;;5039485;28;20064;-80
2021/01/28 03:23:46;;;;;;;1.92;1.70;;;2.80;99.90;;;;;;5038660;28;20053;-80
2021/01/28 03:26:12;;;;;;;1.38;1.20;;;2.80;99.90;;;;;;5038116;28;20510;-81
2021/01/28 03:28:38;;;;;;;1.73;1.63;;;2.70;99.90;;;;;;5038079;28;20056;-80
2021/01/28 03:31:04;;;;;;;1.67;1.65;;;2.70;99.90;;;;;;5038183;28;20533;-80
2021/01/28 03:33:30;;;;;;;1.73;1.63;;;2.70;99.90;;;;;;5037472;28;20046;-80
2021/01/28 03:35:57;;;;;;;1.42;1.40;;;2.70;99.90;;;;;;5036019;28;20049;-80
2021/01/28 03:38:23;;;;;;;2.00;1.90;;;2.70;99.90;;;;;;5036349;28;20410;-80
2021/01/28 03:40:51;;;;;;;1.80;1.70;;;2.70;99.90;;;;;;5037433;28;20092;-80
2021/01/28 03:43:17;;;;;;;2.33;2.22;;;2.60;99.90;;;;;;5036520;28;20064;-80
2021/01/28 03:45:44;;;;;;;1.83;1.73;;;2.60;99.90;;;;;;5036077;28;20053;-81
2021/01/28 03:48:10;;;;;;;1.65;1.55;;;2.60;99.90;;;;;;5037301;28;20045;-80
2021/01/28 03:50:37;;;;;;;1.90;1.80;;;2.60;99.90;;;;;;5037497;28;20095;-80
2021/01/28 03:53:05;;;;;;;2.10;1.90;;;2.60;99.90;;;;;;5037426;28;20053;-80
2021/01/28 03:55:32;;;;;;;1.95;1.85;;;2.60;99.90;;;;;;5038005;28;20103;-80
2021/01/28 03:57:58;;;;;;;2.17;2.08;;;2.60;99.90;;;;;;5038622;28;20582;-80
2021/01/28 04:00:30;;;;;;;1.92;1.83;;;2.60;99.90;;;;;;5037864;28;20499;-80
2021/01/28 04:02:57;;;;;;;2.00;1.90;;;2.60;99.90;;;;;;5038391;28;20053;-80
2021/01/28 04:05:23;;;;;;;1.98;1.88;;;2.60;99.90;;;;;;5036600;28;20137;-80
2021/01/28 04:07:50;;;;;;;2.13;2.03;;;2.60;99.90;;;;;;5038099;28;20088;-80
2021/01/28 04:10:20;;;;;;;1.88;1.77;;;2.60;99.90;;;;;;5036547;28;20053;-80
2021/01/28 04:12:47;;;;;;;2.58;2.38;;;2.60;99.90;;;;;;5038137;28;20049;-80
2021/01/28 04:15:15;;;;;;;2.50;2.30;;;2.70;99.90;;;;;;5036594;28;20084;-80
2021/01/28 04:17:42;;;;;;;2.33;2.20;;;2.70;99.90;;;;;;5038258;28;20085;-80
2021/01/28 04:20:10;;;;;;;2.10;2.00;;;2.70;99.90;;;;;;5038889;28;20061;-81
2021/01/28 04:22:36;;;;;;;2.47;2.38;;;2.60;99.90;;;;;;5042993;28;20049;-81
2021/01/28 04:25:05;;;;;;;3.10;2.92;;;2.60;99.90;;;;;;5042173;28;20049;-82
2021/01/28 04:27:32;;;;;;;3.25;3.05;;;2.60;99.90;;;;;;5045228;28;20053;-81
2021/01/28 04:29:58;;;;;;;4.65;4.18;;;2.60;99.90;;;;;;5043254;28;20041;-81
2021/01/28 04:32:24;;;;;;;3.78;3.53;;;2.60;99.90;;;;;;5041846;28;20133;-81
2021/01/28 04:34:51;;;;;;;6.10;4.00;;;2.60;99.90;;;;;;5042240;28;20053;-80
2021/01/28 04:37:17;;;;;;;4.07;3.67;;;2.50;99.90;;;;;;5039422;28;20049;-80
2021/01/28 04:39:44;;;;;;;4.05;3.70;;;2.50;99.90;;;;;;5038257;28;20056;-81
2021/01/28 04:42:15;;;;;;;4.00;3.67;;;2.50;99.90;;;;;;5040808;28;20137;-80
2021/01/28 04:44:41;;;;;;;4.25;3.90;;;2.50;99.90;;;;;;5039921;28;20050;-81
2021/01/28 04:47:14;;;;;;;4.60;4.15;;;2.60;99.90;;;;;;5039627;28;20057;-80
2021/01/28 04:49:46;;;;;;;5.22;3.88;;;2.50;99.90;;;;;;5039152;28;20053;-80
2021/01/28 04:52:14;;;;;;;4.60;4.18;;;2.50;99.90;;;;;;5040427;28;20085;-81
2021/01/28 04:54:43;;;;;;;5.00;4.53;;;2.50;99.90;;;;;;5039539;28;20050;-80
2021/01/28 04:57:12;;;;;;;5.28;4.88;;;2.50;99.90;;;;;;5039689;28;20051;-81
2021/01/28 04:59:42;;;;;;;5.30;4.80;;;2.50;99.90;;;;;;5040052;28;20124;-81
2021/01/28 05:02:19;;;;;;;5.20;4.80;;;2.50;99.90;;;;;;5039669;28;20103;-80
2021/01/28 05:04:52;;;;;;;5.35;4.85;;;2.50;99.90;;;;;;5038398;28;20064;-81
2021/01/28 05:07:31;;;;;;;4.85;4.38;;;2.50;99.90;;;;;;5039826;28;20072;-80
2021/01/28 05:10:08;;;;;;;4.65;4.05;;;2.50;99.90;;;;;;5039814;28;20092;-80
2021/01/28 05:12:34;;;;;;;5.10;4.47;;;2.50;99.90;;;;;;5038670;28;20049;-81
2021/01/28 05:15:23;;;;;;;4.70;4.30;;;2.50;99.90;;;;;;5039098;28;20132;-81
2021/01/28 05:18:00;;;;;;;4.38;4.03;;;2.50;99.90;;;;;;5038876;28;20454;-81
2021/01/28 05:20:28;;;;;;;6.00;4.68;;;2.50;99.90;;;;;;5039024;28;20053;-80
2021/01/28 05:23:10;;;;;;;3.80;3.50;;;2.50;99.90;;;;;;5039657;28;20045;-81
2021/01/28 05:25:41;;;;;;;5.05;4.53;;;2.50;99.90;;;;;;5037343;28;20104;-81
2021/01/28 05:28:24;;;;;;;5.28;4.25;;;2.60;99.90;;;;;;5039074;28;20064;-81
2021/01/28 05:30:51;;;;;;;4.45;3.90;;;2.60;99.90;;;;;;5037295;28;20041;-80
2021/01/28 05:33:33;;;;;;;5.00;4.50;;;2.60;99.90;;;;;;5037388;28;20083;-80
2021/01/28 05:36:12;;;;;;;5.63;4.22;;;2.60;99.90;;;;;;5038271;28;20422;-81
2021/01/28 05:39:14;;;;;;;5.35;4.80;;;2.60;99.90;;;;;;5037947;28;20076;-81
2021/01/28 05:41:45;;;;;;;4.70;4.18;;;2.60;99.90;;;;;;5036796;28;20136;-80
2021/01/28 05:44:27;;;;;;;6.38;4.38;;;2.60;99.90;;;;;;5036586;28;20088;-80
2021/01/28 05:47:01;;;;;;;5.18;4.07;;;2.60;99.90;;;;;;5035526;28;20080;-80
2021/01/28 05:49:28;;;;;;;5.03;4.50;;;2.60;99.90;;;;;;5036668;28;20061;-80
2021/01/28 05:51:54;;;;;;;5.15;4.65;;;2.50;99.90;;;;;;5035639;28;20045;-80
2021/01/28 05:54:27;;;;;;;5.03;4.63;;;2.50;99.90;;;;;;5037222;28;20456;-80
2021/01/28 05:57:13;;;;;;;5.87;4.50;;;2.50;99.90;;;;;;5034521;28;20092;-81
2021/01/28 05:59:49;;;;;;;4.90;4.22;;;2.50;99.90;;;;;;5037514;28;20316;-80
2021/01/28 06:02:27;;;;;;;6.30;4.45;;;2.60;99.90;;;;;;5039337;28;20119;-81
2021/01/28 06:05:10;;;;;;;6.82;4.63;;;2.60;99.90;;;;;;5037782;28;20079;-80
2021/01/28 06:08:13;;;;;;;4.80;4.25;;;2.60;99.90;;;;;;5040850;28;20053;-81
2021/01/28 06:10:57;;;;;;;4.53;4.13;;;2.60;99.90;;;;;;5045171;28;20042;-81
2021/01/28 06:13:39;;;;;;;;;;;2.50;99.90;;;;;;5043331;28;20125;-81
2021/01/28 06:16:26;;;;;;;5.03;3.75;;;2.50;99.90;;;;;;5040144;28;19921;-81
2021/01/28 06:19:23;;;;;;;3.75;3.30;;;2.50;99.90;;;;;;5039161;28;20045;-81
2021/01/28 06:21:58;;;;;;;4.57;4.18;;;2.60;99.90;;;;;;5037987;28;20045;-81
2021/01/28 06:24:42;;;;;;;4.53;4.13;;;2.60;99.90;;;;;;5038943;28;20053;-81
2021/01/28 06:27:27;;;;;;;4.30;3.53;;;2.60;99.90;;;;;;5038010;28;20132;-81
2021/01/28 06:30:08;;;;;;;3.05;2.85;;;2.60;99.90;;;;;;5036992;28;20045;-80
2021/01/28 06:32:54;;;;;;;3.85;3.47;;;2.60;99.90;;;;;;5038228;28;20063;-80
2021/01/28 06:36:02;;;;;;;3.58;3.25;;;2.60;99.90;;;;;;5036548;28;20076;-81
2021/01/28 06:38:47;;;;;;;3.83;3.47;;;2.60;99.90;;;;;;5038214;28;20046;-81
2021/01/28 06:41:19;;;;;;;3.67;3.35;;;2.60;99.90;;;;;;5037450;28;20061;-80
2021/01/28 06:43:55;;;;;;;3.75;3.45;;;2.50;99.90;;;;;;5036780;28;20076;-80
2021/01/28 06:46:48;;;;;;;3.50;3.20;;;2.50;99.90;;;;;;5037021;28;20053;-80
2021/01/28 06:49:26;;;;;;;3.53;3.22;;;2.60;99.90;;;;;;5035641;28;20064;-81
2021/01/28 06:52:08;;;;;;;3.53;3.22;;;2.60;99.90;;;;;;5035574;28;20100;-80
2021/01/28 06:54:52;;;;;;;4.72;3.00;;;2.60;99.90;;;;;;5036682;28;20046;-81
2021/01/28 06:57:34;;;;;;;3.80;3.17;;;2.60;99.90;;;;;;5036941;28;20045;-81
2021/01/28 07:00:39;;;;;;;3.45;3.13;;;2.60;99.90;;;;;;5037009;28;20133;-80
2021/01/28 07:03:29;;;;;;;3.10;2.90;;;2.60;99.90;;;;;;5026366;28;20049;-80
2021/01/28 07:06:04;;;;;;;3.22;3.00;;;2.60;99.90;;;;;;5039146;28;20087;-81
2021/01/28 07:08:30;;;;;;;3.75;3.22;;;2.60;99.90;;;;;;5039743;28;20106;-81
2021/01/28 07:11:00;;;;;;;3.50;3.20;;;2.60;99.90;;;;;;5038758;28;20063;-80
2021/01/28 07:13:31;;;;;;;4.10;3.13;;;2.60;99.90;;;;;;5039193;28;20045;-81
2021/01/28 07:16:18;;;;;;;3.65;3.15;;;2.60;99.90;;;;;;5038950;28;20061;-80
2021/01/28 07:18:51;;;;;;;3.72;3.42;;;2.60;99.90;;;;;;5022876;28;20046;-81
2021/01/28 07:21:35;;;;;;;;;;;2.60;99.90;;;;;;5039924;28;20640;-80
2021/01/28 07:24:08;;;;;;;2.70;2.58;;;2.60;99.90;;;;;;5038965;28;19960;-80
2021/01/28 07:26:50;;;;;;;3.58;2.83;;;2.60;99.90;;;;;;5039667;28;20080;-80
2021/01/28 07:29:44;;;;;;;2.85;2.67;;;2.70;99.90;;;;;;5039303;28;20053;-82
2021/01/28 07:32:31;;;;;;;2.60;2.40;;;2.70;99.90;;;;;;5039952;28;20080;-80
2021/01/28 07:35:25;;;;;;;2.78;2.67;;;2.80;99.90;;;;;;5040708;28;20134;-81
2021/01/28 07:38:15;;;;;;;2.65;2.53;;;2.80;99.90;;;;;;5038726;28;20049;-81
2021/01/28 07:40:59;;;;;;;3.03;2.70;;;2.90;99.90;;;;;;5039792;28;20527;-81
2021/01/28 07:43:32;;;;;;;2.45;2.35;;;2.90;99.90;;;;;;5040874;28;20060;-80
2021/01/28 07:46:27;;;;;;;2.78;2.30;;;2.90;99.90;;;;;;5037899;28;20081;-81
2021/01/28 07:49:16;;;;;;;2.88;2.67;;;2.90;99.90;;;;;;5037842;28;20140;-81
2021/01/28 07:51:45;;;;;;;2.42;2.33;;;3.00;99.90;;;;;;5040269;28;20100;-80
2021/01/28 07:54:36;;;;;;;2.67;2.58;;;3.10;99.90;;;;;;5039855;28;20077;-80
2021/01/28 07:57:08;;;;;;;4.70;2.08;;;3.10;99.90;;;;;;5037686;28;20087;-80
2021/01/28 07:59:48;;;;;;;1.67;1.58;;;3.20;99.90;;;;;;5043276;28;20080;-81
2021/01/28 08:02:34;;;;;;;1.70;1.60;;;3.20;99.90;;;;;;5042129;28;20045;-81
2021/01/28 08:05:03;;;;;;;2.90;1.55;;;3.30;99.90;;;;;;5041402;28;20052;-81
2021/01/28 08:07:30;;;;;;;2.85;2.30;;;3.30;99.90;;;;;;5040422;28;20104;-81
2021/01/28 08:10:00;;;;;;;2.35;1.50;;;3.30;99.90;;;;;;5040025;28;20049;-81
2021/01/28 08:12:45;;;;;;;3.45;3.10;;;3.40;99.90;;;;;;5039831;28;20102;-80
2021/01/28 08:15:17;;;;;;;3.13;1.80;;;3.40;99.90;;;;;;5039897;28;20084;-80
2021/01/28 08:17:44;;;;;;;2.83;1.80;;;3.30;99.90;;;;;;5039895;28;20518;-81
2021/01/28 08:20:32;;;;;;;1.80;1.70;;;3.40;99.90;;;;;;5040154;28;20054;-80
2021/01/28 08:23:03;;;;;;;3.00;2.05;;;3.50;99.90;;;;;;5037704;28;20053;-81
2021/01/28 08:25:36;;;;;;;2.13;2.03;;;3.50;99.90;;;;;;5038720;28;20199;-80
2021/01/28 08:28:08;;;;;;;4.53;2.30;;;3.50;99.90;;;;;;5037412;28;20049;-81
2021/01/28 08:30:35;;;;;;;2.67;2.30;;;3.50;99.90;;;;;;5038091;28;20049;-81
2021/01/28 08:33:02;;;;;;;6.60;2.05;;;3.50;99.90;;;;;;5037705;28;20041;-80
2021/01/28 08:35:42;;;;;;;3.97;2.30;;;3.50;99.90;;;;;;5037970;28;20046;-80
2021/01/28 08:38:27;;;;;;;2.72;2.53;;;3.50;99.90;;;;;;5035906;28;20517;-80
2021/01/28 08:41:27;;;;;;;4.13;3.20;;;3.50;99.90;;;;;;5037726;28;20049;-80
2021/01/28 08:44:10;;;;;;;3.42;3.22;;;3.50;99.90;;;;;;5038392;28;20057;-81
2021/01/28 08:46:42;;;;;;;4.43;4.00;;;3.60;99.90;;;;;;5037385;28;20077;-81
2021/01/28 08:49:20;;;;;;;3.38;2.75;;;3.60;99.90;;;;;;5036079;28;20088;-81
2021/01/28 08:51:58;;;;;;;3.50;3.10;;;3.60;99.90;;;;;;5037846;28;20050;-82
2021/01/28 08:54:28;;;;;;;3.05;2.45;;;3.70;99.90;;;;;;5035487;28;20077;-80
2021/01/28 08:56:57;;;;;;;2.50;1.98;;;3.60;99.90;;;;;;5036159;28;20041;-79
2021/01/28 08:59:32;;;;;;;2.58;2.42;;;3.60;99.90;;;;;;5036957;28;20091;-80
2021/01/28 09:02:01;;;;;;;2.40;2.20;;;3.60;99.90;;;;;;5036738;28;20053;-80
2021/01/28 09:04:36;;;;;;;3.00;2.80;;;3.60;99.90;;;;;;5037425;28;20117;-81
2021/01/28 09:07:02;;;;;;;2.38;2.17;;;3.70;99.90;;;;;;5036970;28;20136;-80
2021/01/28 09:09:32;;;;;;;3.35;2.20;;;3.70;99.90;;;;;;5037717;28;20132;-81
2021/01/28 09:12:28;;;;;;;7.00;1.50;;;3.90;99.90;;;;;;5035984;28;20068;-81
2021/01/28 09:15:19;;;;;;;1.77;1.60;;;3.90;99.90;;;;;;5034920;28;20049;-80
2021/01/28 09:17:45;;;;;;;1.48;1.38;;;4.00;99.90;;;;;;5035551;28;20054;-81
2021/01/28 09:20:32;;;;;;;1.40;1.40;;;4.00;99.90;;;;;;5035915;28;20055;-81
2021/01/28 09:23:11;;;;;;;1.27;1.27;;;4.00;99.90;;;;;;5034996;28;20057;-81
2021/01/28 09:25:38;;;;;;;2.15;2.05;;;4.10;99.90;;;;;;5036693;28;20088;-81
2021/01/28 09:28:22;;;;;;;1.83;1.73;;;4.20;99.90;;;;;;5036403;28;20540;-81
2021/01/28 09:30:51;;;;;;;1.48;1.38;;;4.20;99.90;;;;;;5035600;28;20132;-80
2021/01/28 09:33:39;;;;;;;1.95;1.85;;;4.40;99.90;;;;;;5036120;28;20537;-81
2021/01/28 09:36:29;;;;;;;1.10;1.10;;;4.50;99.90;;;;;;5036561;28;20057;-81
2021/01/28 09:39:26;;;;;;;0.90;0.90;;;4.60;99.90;;;;;;5034752;28;20049;-80
2021/01/28 09:41:53;;;;;;;0.65;0.65;;;4.60;99.90;;;;;;5036588;28;20077;-81
2021/01/28 09:44:37;;;;;;;1.63;1.52;;;4.60;99.90;;;;;;5042075;28;20049;-81
2021/01/28 09:47:14;;;;;;;0.80;0.80;;;4.50;99.90;;;;;;5041541;28;20438;-81
2021/01/28 09:49:42;;;;;;;1.02;0.80;;;4.60;99.90;;;;;;5041635;28;20057;-81
2021/01/28 09:52:26;;;;;;;1.00;0.95;;;4.70;99.90;;;;;;5039623;28;20045;-82
2021/01/28 09:54:58;;;;;;;1.27;0.60;;;4.70;99.90;;;;;;5041622;28;20049;-81
2021/01/28 09:57:26;;;;;;;0.70;0.70;;;4.70;99.90;;;;;;5041205;28;20057;-81
2021/01/28 09:59:53;;;;;;;3.00;1.40;;;4.70;99.90;;;;;;5038698;28;20053;-81
2021/01/28 10:02:30;;;;;;;1.50;1.40;;;4.40;99.90;;;;;;5041485;28;20441;-81
2021/01/28 10:04:57;;;;;;;1.00;0.75;;;4.40;99.90;;;;;;5040374;28;20119;-82
2021/01/28 10:07:24;;;;;;;0.60;0.60;;;4.40;99.90;;;;;;5041988;28;20056;-81
2021/01/28 10:09:50;;;;;;;0.82;0.70;;;4.40;99.90;;;;;;5041545;28;20076;-81
2021/01/28 10:12:23;;;;;;;1.05;0.98;;;4.40;99.90;;;;;;5041783;28;20049;-81
2021/01/28 10:14:49;;;;;;;1.08;1.08;;;4.40;99.90;;;;;;5043398;28;20072;-81
2021/01/28 10:17:16;;;;;;;0.30;0.30;;;4.40;99.90;;;;;;5039713;28;20056;-80
2021/01/28 10:19:44;;;;;;;0.80;0.80;;;4.40;99.90;;;;;;5039905;28;20080;-81
2021/01/28 10:22:12;;;;;;;0.85;0.70;;;4.40;99.90;;;;;;5038414;28;20049;-81
2021/01/28 10:24:40;;;;;;;0.75;0.70;;;4.40;99.90;;;;;;5038691;28;20101;-81
2021/01/28 10:27:07;;;;;;;1.25;0.90;;;4.40;99.90;;;;;;5040270;28;20590;-81
2021/01/28 10:29:33;;;;;;;1.40;0.60;;;4.40;99.90;;;;;;5039079;28;20046;-81
2021/01/28 10:31:59;;;;;;;0.45;0.40;;;4.30;99.90;;;;;;5039900;28;20088;-81
2021/01/28 10:34:26;;;;;;;1.23;0.40;;;4.30;99.90;;;;;;5040772;28;20072;-81
2021/01/28 10:36:52;;;;;;;0.82;0.82;;;4.20;99.90;;;;;;5043782;28;20077;-81
2021/01/28 10:39:19;;;;;;;0.50;0.50;;;4.10;99.90;;;;;;5043887;28;20053;-81
2021/01/28 10:41:51;;;;;;;0.85;0.40;;;4.00;99.90;;;;;;5044808;28;20076;-81
2021/01/28 10:44:20;;;;;;;0.40;0.40;;;4.00;99.90;;;;;;5044695;28;20084;-81
2021/01/28 10:46:47;;;;;;;0.30;0.30;;;3.90;99.90;;;;;;5044709;28;20319;-82
2021/01/28 10:49:13;;;;;;;0.30;0.30;;;3.80;99.90;;;;;;5044566;28;20510;-81
2021/01/28 10:51:40;;;;;;;1.25;1.13;;;3.80;99.90;;;;;;5045200;28;20395;-81
2021/01/28 10:54:08;;;;;;;0.40;0.40;;;3.70;99.90;;;;;;5043145;28;20041;-81
2021/01/28 10:56:34;;;;;;;1.40;0.30;;;3.70;99.90;;;;;;5042107;28;20046;-82
2021/01/28 10:59:00;;;;;;;0.40;0.40;;;3.70;99.90;;;;;;5041761;28;20091;-82
2021/01/28 11:01:28;;;;;;;0.20;0.20;;;3.70;99.90;;;;;;5041450;28;20046;-81
2021/01/28 11:03:55;;;;;;;1.38;0.47;;;3.70;99.90;;;;;;5126938;22;20054;-89
2021/01/28 11:06:21;;;;;;;0.20;0.20;;;3.80;99.90;;;;;;5017088;28;20053;-88
2021/01/28 11:08:47;;;;;;;0.30;0.30;;;3.80;99.90;;;;;;5017379;28;20110;-89
2021/01/28 11:11:15;;;;;;;0.30;0.30;;;3.80;99.90;;;;;;5024745;28;20121;-89
2021/01/28 11:13:44;;;;;;;0.40;0.40;;;3.80;99.90;;;;;;5028574;28;20402;-89
2021/01/28 11:16:11;;;;;;;0.30;0.30;;;3.80;99.90;;;;;;5016976;28;20141;-89
2021/01/28 11:18:38;;;;;;;0.50;0.50;;;3.90;99.90;;;;;;5016361;28;20112;-89
2021/01/28 11:21:05;;;;;;;0.20;0.20;;;3.90;99.90;;;;;;5016821;28;20457;-89
2021/01/28 11:23:31;;;;;;;0.17;0.17;;;3.80;99.90;;;;;;5016694;28;20136;-89
2021/01/28 11:25:58;;;;;;;0.20;0.20;;;3.80;99.90;;;;;;5016962;28;20069;-89
2021/01/28 11:28:24;;;;;;;0.20;0.20;;;3.80;99.90;;;;;;5016464;28;20508;-89
2021/01/28 11:30:50;;;;;;;2.97;2.35;;;3.70;99.90;;;;;;5015791;28;20085;-89
2021/01/28 11:33:17;;;;;;;0.35;0.35;;;3.70;99.90;;;;;;5016290;28;20077;-90
2021/01/28 11:35:43;;;;;;;1.08;0.98;;;3.70;99.90;;;;;;5016349;28;20058;-90
2021/01/28 11:38:09;;;;;;;1.10;1.08;;;3.60;99.90;;;;;;5017313;28;20565;-91
2021/01/28 11:40:37;;;;;;;0.30;0.30;;;3.60;99.90;;;;;;5017458;28;20459;-90
2021/01/28 11:43:06;;;;;;;0.50;0.50;;;3.60;99.90;;;;;;5016194;28;20085;-91
2021/01/28 11:45:35;;;;;;;0.63;0.45;;;3.60;99.90;;;;;;5015399;28;20049;-91
2021/01/28 11:48:05;;;;;;;0.30;0.30;;;3.60;99.90;;;;;;5016661;28;20129;-92
2021/01/28 11:50:32;;;;;;;1.55;0.30;;;3.60;99.90;;;;;;5015637;28;20046;-91
2021/01/28 11:52:58;;;;;;;0.30;0.30;;;3.60;99.90;;;;;;5015098;28;20053;-91
2021/01/28 11:55:28;;;;;;;0.20;0.20;;;3.50;99.90;;;;;;5016969;28;20081;-92
2021/01/28 11:57:56;;;;;;;0.32;0.32;;;3.60;99.90;;;;;;5015828;28;20046;-91
2021/01/28 12:00:24;;;;;;;1.38;0.40;;;3.50;99.90;;;;;;5016672;28;20062;-92
2021/01/28 12:02:51;;;;;;;0.22;0.22;;;3.50;99.90;;;;;;5016618;28;20387;-92
2021/01/28 12:05:20;;;;;;;0.30;0.30;;;3.50;99.90;;;;;;5017514;28;20058;-91
2021/01/28 12:07:46;;;;;;;0.20;0.20;;;3.50;99.90;;;;;;5016333;28;20046;-92
2021/01/28 12:10:16;;;;;;;0.82;0.43;;;3.50;99.90;;;;;;5017002;28;20050;-92
2021/01/28 12:12:46;;;;;;;0.60;0.40;;;3.40;99.90;;;;;;5016622;28;20088;-92
2021/01/28 12:15:13;;;;;;;1.45;0.40;;;3.40;99.90;;;;;;5016430;28;20125;-92
2021/01/28 12:17:39;;;;;;;0.90;0.30;;;3.30;99.90;;;;;;5015676;28;20129;-92
2021/01/28 12:20:08;;;;;;;0.90;0.55;;;3.30;99.90;;;;;;5014977;28;20049;-92
2021/01/28 12:22:34;;;;;;;1.02;1.02;;;3.30;99.90;;;;;;5015394;28;20136;-92
2021/01/28 12:25:02;;;;;;;1.02;0.50;;;3.30;99.90;;;;;;5015017;28;20128;-92
2021/01/28 12:27:28;;;;;;;1.65;0.60;;;3.30;99.90;;;;;;5023798;28;20138;-92
2021/01/28 12:29:55;;;;;;;3.05;1.58;;;3.40;99.90;;;;;;5029565;28;20054;-93
2021/01/28 12:32:21;;;;;;;1.90;1.00;;;3.40;99.90;;;;;;5015555;28;20072;-91
2021/01/28 12:34:48;;;;;;;0.75;0.75;;;3.40;99.90;;;;;;5015503;28;20414;-91
2021/01/28 12:37:14;;;;;;;1.20;1.20;;;3.40;99.90;;;;;;5015589;28;20401;-92
2021/01/28 12:39:41;;;;;;;0.90;0.90;;;3.40;99.90;;;;;;5015965;28;20077;-91
2021/01/28 12:42:07;;;;;;;1.10;1.00;;;3.40;99.90;;;;;;5013075;28;20046;-91
2021/01/28 12:44:34;;;;;;;3.58;1.55;;;3.50;99.90;;;;;;5014032;28;20151;-91
2021/01/28 12:47:00;;;;;;;0.85;0.80;;;3.50;99.90;;;;;;5014951;28;20124;-91
2021/01/28 12:49:27;;;;;;;2.58;1.30;;;3.40;99.90;;;;;;5014398;28;20045;-91
2021/01/28 12:51:53;;;;;;;1.85;1.00;;;3.40;99.90;;;;;;5013999;28;20137;-91
2021/01/28 12:54:21;;;;;;;1.77;0.90;;;3.40;99.90;;;;;;5015447;28;20490;-91
2021/01/28 12:56:47;;;;;;;4.18;1.20;;;3.40;99.90;;;;;;5013666;28;20054;-91
2021/01/28 12:59:14;;;;;;;3.83;2.10;;;3.50;99.90;;;;;;5013138;28;20056;-92
2021/01/28 13:01:40;;;;;;;1.30;1.20;;;3.40;99.90;;;;;;5014633;28;20494;-91
2021/01/28 13:04:06;;;;;;;3.25;1.58;;;3.40;99.90;;;;;;5013883;28;20054;-90
2021/01/28 13:06:33;;;;;;;4.57;0.80;;;3.40;99.90;;;;;;5013360;28;20053;-91
2021/01/28 13:08:59;;;;;;;0.40;0.40;;;3.40;99.90;;;;;;5012921;28;20110;-91
2021/01/28 13:11:26;;;;;;;1.33;0.98;;;3.40;99.90;;;;;;5013081;28;20567;-91
2021/01/28 13:13:52;;;;;;;79.75;43.13;;;3.30;99.90;;;;;;5014193;28;20073;-91
2021/01/28 13:16:19;;;;;;;43.72;22.88;;;3.20;99.90;;;;;;5014607;28;20447;-91
2021/01/28 13:18:45;;;;;;;5.72;4.43;;;3.10;99.90;;;;;;5012778;28;20125;-91
2021/01/28 13:21:12;;;;;;;5.93;3.97;;;3.20;99.90;;;;;;5012996;28;20090;-90
2021/01/28 13:23:38;;;;;;;5.32;3.92;;;3.20;99.90;;;;;;5013181;28;20441;-90